sensor_id;sensor_type;location;lat;lon;timestamp;P1;durP1;ratioP1;P2;durP2;ratioP2
68106;SDS011;54892;47.488;19.026;2022-10-16T00:02:47;7.87;;;3.75;;
68106;SDS011;54892;47.488;19.026;2022-10-16T00:05:50;6.22;;;3.83;;
68106;SDS011;54892;47.488;19.026;2022-10-16T00:08:53;6.43;;;3.70;;
68106;SDS011;54892;47.488;19.026;2022-10-16T00:11:57;21.65;;;4.00;;
68106;SDS011;54892;47.488;19.026;2022-10-16T00:15:01;8.63;;;3.70;;
68106;SDS011;54892;47.488;19.026;2022-10-16T00:18:04;9.48;;;3.97;;
68106;SDS011;54892;47.488;19.026;2022-10-16T00:21:08;8.80;;;4.30;;
68106;SDS011;54892;47.488;19.026;2022-10-16T00:24:13;7.15;;;3.45;;
68106;SDS011;54892;47.488;19.026;2022-10-16T00:27:16;9.98;;;3.25;;
68106;SDS011;54892;47.488;19.026;2022-10-16T00:30:20;5.95;;;3.53;;
68106;SDS011;54892;47.488;19.026;2022-10-16T00:33:24;10.05;;;3.70;;
68106;SDS011;54892;47.488;19.026;2022-10-16T00:36:28;6.10;;;3.78;;
68106;SDS011;54892;47.488;19.026;2022-10-16T00:39:32;8.23;;;3.87;;
68106;SDS011;54892;47.488;19.026;2022-10-16T00:42:35;12.45;;;3.50;;
68106;SDS011;54892;47.488;19.026;2022-10-16T00:45:39;10.85;;;3.60;;
68106;SDS011;54892;47.488;19.026;2022-10-16T00:48:43;7.70;;;3.43;;
68106;SDS011;54892;47.488;19.026;2022-10-16T00:51:51;7.12;;;3.42;;
68106;SDS011;54892;47.488;19.026;2022-10-16T00:54:56;7.25;;;3.50;;
68106;SDS011;54892;47.488;19.026;2022-10-16T00:58:02;10.48;;;3.87;;
68106;SDS011;54892;47.488;19.026;2022-10-16T01:01:07;6.93;;;3.10;;
68106;SDS011;54892;47.488;19.026;2022-10-16T01:04:10;10.77;;;3.50;;
68106;SDS011;54892;47.488;19.026;2022-10-16T01:07:15;9.55;;;3.50;;
68106;SDS011;54892;47.488;19.026;2022-10-16T01:10:28;7.87;;;3.37;;
68106;SDS011;54892;47.488;19.026;2022-10-16T01:13:38;5.30;;;3.35;;
68106;SDS011;54892;47.488;19.026;2022-10-16T01:16:47;8.15;;;4.07;;
68106;SDS011;54892;47.488;19.026;2022-10-16T01:20:03;5.72;;;3.37;;
68106;SDS011;54892;47.488;19.026;2022-10-16T01:23:16;5.10;;;3.70;;
68106;SDS011;54892;47.488;19.026;2022-10-16T01:26:31;9.07;;;3.42;;
68106;SDS011;54892;47.488;19.026;2022-10-16T01:29:48;4.57;;;3.28;;
68106;SDS011;54892;47.488;19.026;2022-10-16T01:32:55;7.15;;;3.55;;
68106;SDS011;54892;47.488;19.026;2022-10-16T01:36:05;9.82;;;3.62;;
68106;SDS011;54892;47.488;19.026;2022-10-16T01:39:12;5.12;;;3.08;;
68106;SDS011;54892;47.488;19.026;2022-10-16T01:42:19;9.63;;;3.40;;
68106;SDS011;54892;47.488;19.026;2022-10-16T01:45:26;7.70;;;3.30;;
68106;SDS011;54892;47.488;19.026;2022-10-16T01:48:32;6.37;;;3.30;;
68106;SDS011;54892;47.488;19.026;2022-10-16T01:51:37;7.25;;;3.40;;
68106;SDS011;54892;47.488;19.026;2022-10-16T01:54:40;5.20;;;3.33;;
68106;SDS011;54892;47.488;19.026;2022-10-16T01:57:49;10.55;;;2.80;;
68106;SDS011;54892;47.488;19.026;2022-10-16T02:00:55;7.22;;;3.45;;
68106;SDS011;54892;47.488;19.026;2022-10-16T02:04:01;5.72;;;3.60;;
68106;SDS011;54892;47.488;19.026;2022-10-16T02:07:07;8.38;;;3.75;;
68106;SDS011;54892;47.488;19.026;2022-10-16T02:10:11;8.18;;;4.25;;
68106;SDS011;54892;47.488;19.026;2022-10-16T02:13:16;6.22;;;3.53;;
68106;SDS011;54892;47.488;19.026;2022-10-16T02:16:32;9.27;;;3.58;;
68106;SDS011;54892;47.488;19.026;2022-10-16T02:19:35;7.95;;;3.45;;
68106;SDS011;54892;47.488;19.026;2022-10-16T02:22:45;16.95;;;4.00;;
68106;SDS011;54892;47.488;19.026;2022-10-16T02:25:51;6.72;;;3.40;;
68106;SDS011;54892;47.488;19.026;2022-10-16T02:28:58;7.32;;;3.65;;
68106;SDS011;54892;47.488;19.026;2022-10-16T02:32:07;7.12;;;3.60;;
68106;SDS011;54892;47.488;19.026;2022-10-16T02:35:12;6.90;;;3.78;;
68106;SDS011;54892;47.488;19.026;2022-10-16T02:38:16;10.30;;;3.55;;
68106;SDS011;54892;47.488;19.026;2022-10-16T02:41:21;5.00;;;3.62;;
68106;SDS011;54892;47.488;19.026;2022-10-16T02:44:24;10.98;;;3.92;;
68106;SDS011;54892;47.488;19.026;2022-10-16T02:47:29;8.85;;;3.65;;
68106;SDS011;54892;47.488;19.026;2022-10-16T02:50:32;6.47;;;3.65;;
68106;SDS011;54892;47.488;19.026;2022-10-16T02:53:35;5.93;;;3.47;;
68106;SDS011;54892;47.488;19.026;2022-10-16T02:56:38;10.23;;;3.90;;
68106;SDS011;54892;47.488;19.026;2022-10-16T02:59:42;10.10;;;3.72;;
68106;SDS011;54892;47.488;19.026;2022-10-16T03:02:46;5.85;;;3.75;;
68106;SDS011;54892;47.488;19.026;2022-10-16T03:05:50;5.18;;;3.90;;
68106;SDS011;54892;47.488;19.026;2022-10-16T03:08:53;12.18;;;3.90;;
68106;SDS011;54892;47.488;19.026;2022-10-16T03:11:56;6.12;;;3.90;;
68106;SDS011;54892;47.488;19.026;2022-10-16T03:15:00;8.70;;;3.70;;
68106;SDS011;54892;47.488;19.026;2022-10-16T03:18:05;5.95;;;3.25;;
68106;SDS011;54892;47.488;19.026;2022-10-16T03:21:08;10.03;;;3.70;;
68106;SDS011;54892;47.488;19.026;2022-10-16T03:24:12;6.15;;;3.37;;
68106;SDS011;54892;47.488;19.026;2022-10-16T03:27:15;6.28;;;3.60;;
68106;SDS011;54892;47.488;19.026;2022-10-16T03:30:19;7.03;;;3.85;;
68106;SDS011;54892;47.488;19.026;2022-10-16T03:33:24;6.55;;;4.28;;
68106;SDS011;54892;47.488;19.026;2022-10-16T03:36:27;6.50;;;4.07;;
68106;SDS011;54892;47.488;19.026;2022-10-16T03:39:30;7.70;;;3.75;;
68106;SDS011;54892;47.488;19.026;2022-10-16T03:42:34;5.35;;;3.65;;
68106;SDS011;54892;47.488;19.026;2022-10-16T03:45:37;6.70;;;3.75;;
68106;SDS011;54892;47.488;19.026;2022-10-16T03:48:42;6.25;;;3.70;;
68106;SDS011;54892;47.488;19.026;2022-10-16T03:51:45;9.23;;;4.00;;
68106;SDS011;54892;47.488;19.026;2022-10-16T03:54:48;7.07;;;3.60;;
68106;SDS011;54892;47.488;19.026;2022-10-16T03:57:52;9.82;;;3.83;;
68106;SDS011;54892;47.488;19.026;2022-10-16T04:00:55;6.65;;;3.92;;
68106;SDS011;54892;47.488;19.026;2022-10-16T04:03:59;10.02;;;3.78;;
68106;SDS011;54892;47.488;19.026;2022-10-16T04:07:02;10.60;;;4.60;;
68106;SDS011;54892;47.488;19.026;2022-10-16T04:10:05;6.32;;;3.80;;
68106;SDS011;54892;47.488;19.026;2022-10-16T04:13:09;8.95;;;4.03;;
68106;SDS011;54892;47.488;19.026;2022-10-16T04:16:12;8.98;;;3.97;;
68106;SDS011;54892;47.488;19.026;2022-10-16T04:19:17;5.82;;;4.10;;
68106;SDS011;54892;47.488;19.026;2022-10-16T04:22:20;6.85;;;3.62;;
68106;SDS011;54892;47.488;19.026;2022-10-16T04:25:23;6.35;;;3.67;;
68106;SDS011;54892;47.488;19.026;2022-10-16T04:28:26;7.70;;;3.72;;
68106;SDS011;54892;47.488;19.026;2022-10-16T04:31:30;7.25;;;3.40;;
68106;SDS011;54892;47.488;19.026;2022-10-16T04:34:34;6.05;;;4.10;;
68106;SDS011;54892;47.488;19.026;2022-10-16T04:37:39;8.32;;;4.18;;
68106;SDS011;54892;47.488;19.026;2022-10-16T04:40:42;9.50;;;3.87;;
68106;SDS011;54892;47.488;19.026;2022-10-16T04:43:46;6.37;;;3.87;;
68106;SDS011;54892;47.488;19.026;2022-10-16T04:46:49;10.98;;;4.20;;
68106;SDS011;54892;47.488;19.026;2022-10-16T04:49:54;9.00;;;4.57;;
68106;SDS011;54892;47.488;19.026;2022-10-16T04:52:58;8.75;;;4.12;;
68106;SDS011;54892;47.488;19.026;2022-10-16T04:56:01;9.30;;;3.95;;
68106;SDS011;54892;47.488;19.026;2022-10-16T04:59:05;6.22;;;4.00;;
68106;SDS011;54892;47.488;19.026;2022-10-16T05:02:09;11.75;;;3.70;;
68106;SDS011;54892;47.488;19.026;2022-10-16T05:05:13;8.38;;;4.10;;
68106;SDS011;54892;47.488;19.026;2022-10-16T05:08:16;13.05;;;4.50;;
68106;SDS011;54892;47.488;19.026;2022-10-16T05:11:20;10.70;;;3.85;;
68106;SDS011;54892;47.488;19.026;2022-10-16T05:14:23;7.75;;;4.10;;
68106;SDS011;54892;47.488;19.026;2022-10-16T05:17:27;10.23;;;4.40;;
68106;SDS011;54892;47.488;19.026;2022-10-16T05:20:31;7.70;;;3.85;;
68106;SDS011;54892;47.488;19.026;2022-10-16T05:23:35;11.32;;;3.90;;
68106;SDS011;54892;47.488;19.026;2022-10-16T05:26:39;6.85;;;3.80;;
68106;SDS011;54892;47.488;19.026;2022-10-16T05:29:43;6.95;;;3.83;;
68106;SDS011;54892;47.488;19.026;2022-10-16T05:32:47;6.93;;;4.03;;
68106;SDS011;54892;47.488;19.026;2022-10-16T05:35:52;7.68;;;4.22;;
68106;SDS011;54892;47.488;19.026;2022-10-16T05:38:55;7.28;;;4.28;;
68106;SDS011;54892;47.488;19.026;2022-10-16T05:42:00;14.38;;;4.35;;
68106;SDS011;54892;47.488;19.026;2022-10-16T05:45:04;11.40;;;4.43;;
68106;SDS011;54892;47.488;19.026;2022-10-16T05:48:09;8.13;;;4.05;;
68106;SDS011;54892;47.488;19.026;2022-10-16T05:51:14;6.18;;;3.72;;
68106;SDS011;54892;47.488;19.026;2022-10-16T05:54:18;7.25;;;3.92;;
68106;SDS011;54892;47.488;19.026;2022-10-16T05:57:21;6.50;;;4.30;;
68106;SDS011;54892;47.488;19.026;2022-10-16T06:00:24;7.55;;;4.03;;
68106;SDS011;54892;47.488;19.026;2022-10-16T06:03:29;6.67;;;4.07;;
68106;SDS011;54892;47.488;19.026;2022-10-16T06:06:34;8.90;;;4.22;;
68106;SDS011;54892;47.488;19.026;2022-10-16T06:09:38;13.50;;;4.53;;
68106;SDS011;54892;47.488;19.026;2022-10-16T06:12:41;12.15;;;4.90;;
68106;SDS011;54892;47.488;19.026;2022-10-16T06:15:45;7.12;;;4.28;;
68106;SDS011;54892;47.488;19.026;2022-10-16T06:18:50;6.87;;;4.18;;
68106;SDS011;54892;47.488;19.026;2022-10-16T06:21:55;9.30;;;4.78;;
68106;SDS011;54892;47.488;19.026;2022-10-16T06:24:59;8.90;;;4.37;;
68106;SDS011;54892;47.488;19.026;2022-10-16T06:28:03;9.13;;;4.50;;
68106;SDS011;54892;47.488;19.026;2022-10-16T06:31:08;8.25;;;4.10;;
68106;SDS011;54892;47.488;19.026;2022-10-16T06:34:12;8.55;;;4.28;;
68106;SDS011;54892;47.488;19.026;2022-10-16T06:37:16;8.20;;;4.28;;
68106;SDS011;54892;47.488;19.026;2022-10-16T06:40:20;6.28;;;4.20;;
68106;SDS011;54892;47.488;19.026;2022-10-16T06:43:23;7.22;;;4.00;;
68106;SDS011;54892;47.488;19.026;2022-10-16T06:46:27;8.07;;;4.43;;
68106;SDS011;54892;47.488;19.026;2022-10-16T06:49:30;11.35;;;4.40;;
68106;SDS011;54892;47.488;19.026;2022-10-16T06:52:34;12.27;;;4.80;;
68106;SDS011;54892;47.488;19.026;2022-10-16T06:55:38;7.97;;;4.60;;
68106;SDS011;54892;47.488;19.026;2022-10-16T06:58:42;11.15;;;4.32;;
68106;SDS011;54892;47.488;19.026;2022-10-16T07:01:45;6.97;;;4.57;;
68106;SDS011;54892;47.488;19.026;2022-10-16T07:04:48;14.75;;;4.65;;
68106;SDS011;54892;47.488;19.026;2022-10-16T07:07:53;8.90;;;5.00;;
68106;SDS011;54892;47.488;19.026;2022-10-16T07:11:00;6.73;;;3.97;;
68106;SDS011;54892;47.488;19.026;2022-10-16T07:14:04;10.02;;;4.12;;
68106;SDS011;54892;47.488;19.026;2022-10-16T07:17:07;11.18;;;4.50;;
68106;SDS011;54892;47.488;19.026;2022-10-16T07:20:10;7.62;;;4.32;;
68106;SDS011;54892;47.488;19.026;2022-10-16T07:23:15;7.10;;;3.92;;
68106;SDS011;54892;47.488;19.026;2022-10-16T07:26:19;11.60;;;4.97;;
68106;SDS011;54892;47.488;19.026;2022-10-16T07:29:22;9.27;;;4.00;;
68106;SDS011;54892;47.488;19.026;2022-10-16T07:32:25;9.00;;;4.10;;
68106;SDS011;54892;47.488;19.026;2022-10-16T07:35:28;7.53;;;4.72;;
68106;SDS011;54892;47.488;19.026;2022-10-16T07:38:33;10.27;;;4.68;;
68106;SDS011;54892;47.488;19.026;2022-10-16T07:41:36;9.02;;;4.40;;
68106;SDS011;54892;47.488;19.026;2022-10-16T07:44:39;6.93;;;4.30;;
68106;SDS011;54892;47.488;19.026;2022-10-16T07:47:42;8.00;;;4.12;;
68106;SDS011;54892;47.488;19.026;2022-10-16T07:50:46;7.93;;;4.53;;
68106;SDS011;54892;47.488;19.026;2022-10-16T07:53:50;7.70;;;4.18;;
68106;SDS011;54892;47.488;19.026;2022-10-16T07:56:54;6.30;;;3.83;;
68106;SDS011;54892;47.488;19.026;2022-10-16T07:59:58;6.87;;;3.97;;
68106;SDS011;54892;47.488;19.026;2022-10-16T08:03:01;6.72;;;3.97;;
68106;SDS011;54892;47.488;19.026;2022-10-16T08:06:05;8.43;;;4.45;;
68106;SDS011;54892;47.488;19.026;2022-10-16T08:09:09;5.78;;;4.30;;
68106;SDS011;54892;47.488;19.026;2022-10-16T08:12:13;7.67;;;3.90;;
68106;SDS011;54892;47.488;19.026;2022-10-16T08:15:16;9.38;;;4.30;;
68106;SDS011;54892;47.488;19.026;2022-10-16T08:18:19;10.70;;;4.45;;
68106;SDS011;54892;47.488;19.026;2022-10-16T08:21:23;11.00;;;4.57;;
68106;SDS011;54892;47.488;19.026;2022-10-16T08:24:27;7.43;;;4.55;;
68106;SDS011;54892;47.488;19.026;2022-10-16T08:27:32;6.65;;;4.22;;
68106;SDS011;54892;47.488;19.026;2022-10-16T08:30:36;8.45;;;4.97;;
68106;SDS011;54892;47.488;19.026;2022-10-16T08:33:40;14.73;;;4.95;;
68106;SDS011;54892;47.488;19.026;2022-10-16T08:36:45;12.40;;;4.82;;
68106;SDS011;54892;47.488;19.026;2022-10-16T08:39:50;11.95;;;5.00;;
68106;SDS011;54892;47.488;19.026;2022-10-16T08:42:57;9.83;;;4.93;;
68106;SDS011;54892;47.488;19.026;2022-10-16T08:46:25;8.00;;;4.90;;
68106;SDS011;54892;47.488;19.026;2022-10-16T08:49:39;9.13;;;4.30;;
68106;SDS011;54892;47.488;19.026;2022-10-16T08:52:45;10.48;;;4.30;;
68106;SDS011;54892;47.488;19.026;2022-10-16T08:55:50;10.13;;;4.75;;
68106;SDS011;54892;47.488;19.026;2022-10-16T08:58:55;6.05;;;4.43;;
68106;SDS011;54892;47.488;19.026;2022-10-16T09:02:02;7.75;;;4.50;;
68106;SDS011;54892;47.488;19.026;2022-10-16T09:05:29;8.25;;;4.82;;
68106;SDS011;54892;47.488;19.026;2022-10-16T09:08:58;9.93;;;4.22;;
68106;SDS011;54892;47.488;19.026;2022-10-16T09:12:17;7.18;;;4.32;;
68106;SDS011;54892;47.488;19.026;2022-10-16T09:15:25;8.50;;;4.50;;
68106;SDS011;54892;47.488;19.026;2022-10-16T09:18:37;10.30;;;4.40;;
68106;SDS011;54892;47.488;19.026;2022-10-16T09:21:48;9.80;;;4.43;;
68106;SDS011;54892;47.488;19.026;2022-10-16T09:24:53;9.55;;;4.43;;
68106;SDS011;54892;47.488;19.026;2022-10-16T09:27:58;6.37;;;3.97;;
68106;SDS011;54892;47.488;19.026;2022-10-16T09:34:05;9.50;;;4.40;;
68106;SDS011;54892;47.488;19.026;2022-10-16T09:37:21;7.47;;;4.55;;
68106;SDS011;54892;47.488;19.026;2022-10-16T09:40:26;6.72;;;4.40;;
68106;SDS011;54892;47.488;19.026;2022-10-16T09:43:35;6.50;;;4.57;;
68106;SDS011;54892;47.488;19.026;2022-10-16T09:46:44;9.55;;;4.78;;
68106;SDS011;54892;47.488;19.026;2022-10-16T09:49:50;7.68;;;4.87;;
68106;SDS011;54892;47.488;19.026;2022-10-16T09:53:05;7.95;;;4.50;;
68106;SDS011;54892;47.488;19.026;2022-10-16T09:56:09;7.45;;;4.65;;
68106;SDS011;54892;47.488;19.026;2022-10-16T09:59:17;7.60;;;4.18;;
68106;SDS011;54892;47.488;19.026;2022-10-16T10:02:23;10.45;;;4.80;;
68106;SDS011;54892;47.488;19.026;2022-10-16T10:05:32;11.05;;;4.40;;
68106;SDS011;54892;47.488;19.026;2022-10-16T10:08:36;6.60;;;4.53;;
68106;SDS011;54892;47.488;19.026;2022-10-16T10:11:44;10.05;;;4.60;;
68106;SDS011;54892;47.488;19.026;2022-10-16T10:14:52;8.90;;;4.55;;
68106;SDS011;54892;47.488;19.026;2022-10-16T10:17:57;7.75;;;4.45;;
68106;SDS011;54892;47.488;19.026;2022-10-16T10:21:01;6.85;;;4.15;;
68106;SDS011;54892;47.488;19.026;2022-10-16T10:24:09;7.10;;;4.05;;
68106;SDS011;54892;47.488;19.026;2022-10-16T10:27:14;8.18;;;4.25;;
68106;SDS011;54892;47.488;19.026;2022-10-16T10:30:22;9.68;;;5.20;;
68106;SDS011;54892;47.488;19.026;2022-10-16T10:33:29;7.70;;;3.92;;
68106;SDS011;54892;47.488;19.026;2022-10-16T10:36:41;7.40;;;4.12;;
68106;SDS011;54892;47.488;19.026;2022-10-16T10:39:48;7.28;;;4.28;;
68106;SDS011;54892;47.488;19.026;2022-10-16T10:42:58;8.63;;;3.95;;
68106;SDS011;54892;47.488;19.026;2022-10-16T10:46:09;13.25;;;4.95;;
68106;SDS011;54892;47.488;19.026;2022-10-16T10:49:27;6.35;;;3.97;;
68106;SDS011;54892;47.488;19.026;2022-10-16T10:52:43;11.57;;;3.97;;
68106;SDS011;54892;47.488;19.026;2022-10-16T10:56:00;10.80;;;3.97;;
68106;SDS011;54892;47.488;19.026;2022-10-16T11:03:00;5.47;;;3.20;;
68106;SDS011;54892;47.488;19.026;2022-10-16T11:06:12;4.95;;;3.30;;
68106;SDS011;54892;47.488;19.026;2022-10-16T11:09:21;8.57;;;3.08;;
68106;SDS011;54892;47.488;19.026;2022-10-16T11:12:29;6.60;;;3.35;;
68106;SDS011;54892;47.488;19.026;2022-10-16T11:15:38;6.07;;;2.90;;
68106;SDS011;54892;47.488;19.026;2022-10-16T11:18:47;6.37;;;3.28;;
68106;SDS011;54892;47.488;19.026;2022-10-16T11:21:55;4.65;;;2.97;;
68106;SDS011;54892;47.488;19.026;2022-10-16T11:25:13;4.87;;;2.83;;
68106;SDS011;54892;47.488;19.026;2022-10-16T11:28:23;4.75;;;2.97;;
68106;SDS011;54892;47.488;19.026;2022-10-16T11:31:34;6.90;;;3.03;;
68106;SDS011;54892;47.488;19.026;2022-10-16T11:34:42;5.68;;;2.90;;
68106;SDS011;54892;47.488;19.026;2022-10-16T11:37:50;4.28;;;2.55;;
68106;SDS011;54892;47.488;19.026;2022-10-16T11:40:59;8.07;;;3.12;;
68106;SDS011;54892;47.488;19.026;2022-10-16T11:44:09;7.43;;;2.90;;
68106;SDS011;54892;47.488;19.026;2022-10-16T11:47:27;5.65;;;2.97;;
68106;SDS011;54892;47.488;19.026;2022-10-16T11:50:58;6.68;;;2.92;;
68106;SDS011;54892;47.488;19.026;2022-10-16T11:54:09;5.87;;;2.78;;
68106;SDS011;54892;47.488;19.026;2022-10-16T11:57:23;6.43;;;3.08;;
68106;SDS011;54892;47.488;19.026;2022-10-16T12:00:30;5.65;;;2.87;;
68106;SDS011;54892;47.488;19.026;2022-10-16T12:03:40;5.97;;;2.70;;
68106;SDS011;54892;47.488;19.026;2022-10-16T12:06:52;4.93;;;2.70;;
68106;SDS011;54892;47.488;19.026;2022-10-16T12:10:09;6.82;;;2.70;;
68106;SDS011;54892;47.488;19.026;2022-10-16T12:13:32;4.57;;;2.80;;
68106;SDS011;54892;47.488;19.026;2022-10-16T12:16:37;4.37;;;2.67;;
68106;SDS011;54892;47.488;19.026;2022-10-16T12:19:40;5.10;;;2.70;;
68106;SDS011;54892;47.488;19.026;2022-10-16T12:22:49;3.92;;;2.42;;
68106;SDS011;54892;47.488;19.026;2022-10-16T12:25:56;4.72;;;2.85;;
68106;SDS011;54892;47.488;19.026;2022-10-16T12:29:10;4.12;;;2.58;;
68106;SDS011;54892;47.488;19.026;2022-10-16T12:32:22;4.50;;;2.30;;
68106;SDS011;54892;47.488;19.026;2022-10-16T12:35:49;2.65;;;2.00;;
68106;SDS011;54892;47.488;19.026;2022-10-16T12:38:54;6.75;;;2.40;;
68106;SDS011;54892;47.488;19.026;2022-10-16T12:42:01;7.75;;;2.53;;
68106;SDS011;54892;47.488;19.026;2022-10-16T12:45:21;6.62;;;2.03;;
68106;SDS011;54892;47.488;19.026;2022-10-16T12:48:27;6.18;;;2.20;;
68106;SDS011;54892;47.488;19.026;2022-10-16T12:51:34;5.57;;;2.95;;
68106;SDS011;54892;47.488;19.026;2022-10-16T12:54:39;10.68;;;3.50;;
68106;SDS011;54892;47.488;19.026;2022-10-16T12:57:45;6.70;;;2.80;;
68106;SDS011;54892;47.488;19.026;2022-10-16T13:01:07;6.10;;;2.75;;
68106;SDS011;54892;47.488;19.026;2022-10-16T13:07:56;4.62;;;2.40;;
68106;SDS011;54892;47.488;19.026;2022-10-16T13:11:11;6.30;;;2.25;;
68106;SDS011;54892;47.488;19.026;2022-10-16T13:18:05;6.37;;;2.47;;
68106;SDS011;54892;47.488;19.026;2022-10-16T13:21:18;5.60;;;2.58;;
68106;SDS011;54892;47.488;19.026;2022-10-16T13:24:41;4.82;;;2.30;;
68106;SDS011;54892;47.488;19.026;2022-10-16T13:27:55;4.75;;;2.40;;
68106;SDS011;54892;47.488;19.026;2022-10-16T13:31:10;3.70;;;2.20;;
68106;SDS011;54892;47.488;19.026;2022-10-16T13:34:20;4.70;;;2.30;;
68106;SDS011;54892;47.488;19.026;2022-10-16T13:37:24;6.37;;;2.12;;
68106;SDS011;54892;47.488;19.026;2022-10-16T13:40:29;6.28;;;2.58;;
68106;SDS011;54892;47.488;19.026;2022-10-16T13:43:34;3.53;;;2.17;;
68106;SDS011;54892;47.488;19.026;2022-10-16T13:46:40;3.90;;;2.30;;
68106;SDS011;54892;47.488;19.026;2022-10-16T13:49:44;3.37;;;2.33;;
68106;SDS011;54892;47.488;19.026;2022-10-16T13:52:47;5.93;;;2.28;;
68106;SDS011;54892;47.488;19.026;2022-10-16T13:55:51;6.07;;;2.70;;
68106;SDS011;54892;47.488;19.026;2022-10-16T13:58:59;5.15;;;2.40;;
68106;SDS011;54892;47.488;19.026;2022-10-16T14:02:05;4.72;;;2.10;;
68106;SDS011;54892;47.488;19.026;2022-10-16T14:05:20;8.50;;;2.05;;
68106;SDS011;54892;47.488;19.026;2022-10-16T14:08:23;2.80;;;1.92;;
68106;SDS011;54892;47.488;19.026;2022-10-16T14:11:29;3.78;;;2.28;;
68106;SDS011;54892;47.488;19.026;2022-10-16T14:14:34;3.37;;;2.40;;
68106;SDS011;54892;47.488;19.026;2022-10-16T14:17:43;5.82;;;2.35;;
68106;SDS011;54892;47.488;19.026;2022-10-16T14:20:48;4.90;;;2.60;;
68106;SDS011;54892;47.488;19.026;2022-10-16T14:23:52;3.08;;;2.10;;
68106;SDS011;54892;47.488;19.026;2022-10-16T14:26:55;4.47;;;2.08;;
68106;SDS011;54892;47.488;19.026;2022-10-16T14:30:09;4.47;;;2.40;;
68106;SDS011;54892;47.488;19.026;2022-10-16T14:33:20;7.53;;;2.50;;
68106;SDS011;54892;47.488;19.026;2022-10-16T14:36:25;3.72;;;2.17;;
68106;SDS011;54892;47.488;19.026;2022-10-16T14:39:29;2.87;;;2.10;;
68106;SDS011;54892;47.488;19.026;2022-10-16T14:42:33;7.10;;;2.60;;
68106;SDS011;54892;47.488;19.026;2022-10-16T14:45:38;3.37;;;2.65;;
68106;SDS011;54892;47.488;19.026;2022-10-16T14:48:45;5.30;;;2.45;;
68106;SDS011;54892;47.488;19.026;2022-10-16T14:51:50;3.83;;;2.37;;
68106;SDS011;54892;47.488;19.026;2022-10-16T14:54:54;4.45;;;2.90;;
68106;SDS011;54892;47.488;19.026;2022-10-16T14:57:57;4.40;;;2.60;;
68106;SDS011;54892;47.488;19.026;2022-10-16T15:01:02;3.80;;;2.40;;
68106;SDS011;54892;47.488;19.026;2022-10-16T15:04:08;3.72;;;2.25;;
68106;SDS011;54892;47.488;19.026;2022-10-16T15:07:12;5.62;;;2.12;;
68106;SDS011;54892;47.488;19.026;2022-10-16T15:10:15;3.47;;;2.37;;
68106;SDS011;54892;47.488;19.026;2022-10-16T15:13:19;7.25;;;2.60;;
68106;SDS011;54892;47.488;19.026;2022-10-16T15:16:24;5.37;;;2.50;;
68106;SDS011;54892;47.488;19.026;2022-10-16T15:19:27;5.20;;;2.77;;
68106;SDS011;54892;47.488;19.026;2022-10-16T15:22:31;7.95;;;3.30;;
68106;SDS011;54892;47.488;19.026;2022-10-16T15:25:35;6.03;;;2.75;;
68106;SDS011;54892;47.488;19.026;2022-10-16T15:28:41;7.50;;;3.10;;
68106;SDS011;54892;47.488;19.026;2022-10-16T15:31:46;5.32;;;2.62;;
68106;SDS011;54892;47.488;19.026;2022-10-16T15:34:49;7.78;;;2.53;;
68106;SDS011;54892;47.488;19.026;2022-10-16T15:37:53;5.07;;;2.72;;
68106;SDS011;54892;47.488;19.026;2022-10-16T15:40:56;4.53;;;2.45;;
68106;SDS011;54892;47.488;19.026;2022-10-16T15:43:59;11.43;;;3.17;;
68106;SDS011;54892;47.488;19.026;2022-10-16T15:47:03;7.28;;;2.90;;
68106;SDS011;54892;47.488;19.026;2022-10-16T15:50:07;5.10;;;2.70;;
68106;SDS011;54892;47.488;19.026;2022-10-16T15:53:13;5.55;;;2.70;;
68106;SDS011;54892;47.488;19.026;2022-10-16T15:56:16;5.95;;;2.65;;
68106;SDS011;54892;47.488;19.026;2022-10-16T15:59:20;7.15;;;2.80;;
68106;SDS011;54892;47.488;19.026;2022-10-16T16:02:24;6.70;;;2.80;;
68106;SDS011;54892;47.488;19.026;2022-10-16T16:05:28;4.97;;;2.62;;
68106;SDS011;54892;47.488;19.026;2022-10-16T16:08:32;10.07;;;3.83;;
68106;SDS011;54892;47.488;19.026;2022-10-16T16:11:36;4.57;;;2.90;;
68106;SDS011;54892;47.488;19.026;2022-10-16T16:14:40;6.35;;;3.12;;
68106;SDS011;54892;47.488;19.026;2022-10-16T16:17:45;13.10;;;3.15;;
68106;SDS011;54892;47.488;19.026;2022-10-16T16:20:48;6.45;;;3.20;;
68106;SDS011;54892;47.488;19.026;2022-10-16T16:23:51;6.00;;;3.35;;
68106;SDS011;54892;47.488;19.026;2022-10-16T16:26:55;7.80;;;4.20;;
68106;SDS011;54892;47.488;19.026;2022-10-16T16:29:58;11.57;;;3.65;;
68106;SDS011;54892;47.488;19.026;2022-10-16T16:33:03;10.57;;;3.97;;
68106;SDS011;54892;47.488;19.026;2022-10-16T16:36:06;10.27;;;3.93;;
68106;SDS011;54892;47.488;19.026;2022-10-16T16:39:13;9.75;;;4.22;;
68106;SDS011;54892;47.488;19.026;2022-10-16T16:42:16;11.00;;;3.80;;
68106;SDS011;54892;47.488;19.026;2022-10-16T16:45:19;9.52;;;4.03;;
68106;SDS011;54892;47.488;19.026;2022-10-16T16:48:24;9.05;;;4.20;;
68106;SDS011;54892;47.488;19.026;2022-10-16T16:51:27;9.00;;;3.70;;
68106;SDS011;54892;47.488;19.026;2022-10-16T16:54:31;8.18;;;3.90;;
68106;SDS011;54892;47.488;19.026;2022-10-16T16:57:39;8.70;;;3.95;;
68106;SDS011;54892;47.488;19.026;2022-10-16T17:00:44;9.88;;;3.90;;
68106;SDS011;54892;47.488;19.026;2022-10-16T17:03:53;8.02;;;4.55;;
68106;SDS011;54892;47.488;19.026;2022-10-16T17:06:59;10.02;;;4.75;;
68106;SDS011;54892;47.488;19.026;2022-10-16T17:10:02;15.52;;;4.25;;
68106;SDS011;54892;47.488;19.026;2022-10-16T17:13:06;9.57;;;4.80;;
68106;SDS011;54892;47.488;19.026;2022-10-16T17:16:10;12.15;;;4.32;;
68106;SDS011;54892;47.488;19.026;2022-10-16T17:19:17;12.77;;;4.43;;
68106;SDS011;54892;47.488;19.026;2022-10-16T17:22:21;8.95;;;4.47;;
68106;SDS011;54892;47.488;19.026;2022-10-16T17:25:26;13.73;;;5.57;;
68106;SDS011;54892;47.488;19.026;2022-10-16T17:28:31;9.60;;;4.28;;
68106;SDS011;54892;47.488;19.026;2022-10-16T17:31:35;11.35;;;4.85;;
68106;SDS011;54892;47.488;19.026;2022-10-16T17:34:40;10.10;;;4.47;;
68106;SDS011;54892;47.488;19.026;2022-10-16T17:37:45;12.60;;;4.70;;
68106;SDS011;54892;47.488;19.026;2022-10-16T17:40:49;12.20;;;4.60;;
68106;SDS011;54892;47.488;19.026;2022-10-16T17:43:55;10.50;;;5.10;;
68106;SDS011;54892;47.488;19.026;2022-10-16T17:47:00;8.35;;;4.90;;
68106;SDS011;54892;47.488;19.026;2022-10-16T17:50:06;11.75;;;4.60;;
68106;SDS011;54892;47.488;19.026;2022-10-16T17:53:11;8.77;;;5.00;;
68106;SDS011;54892;47.488;19.026;2022-10-16T17:56:15;14.93;;;4.50;;
68106;SDS011;54892;47.488;19.026;2022-10-16T17:59:19;10.48;;;4.87;;
68106;SDS011;54892;47.488;19.026;2022-10-16T18:02:24;12.57;;;4.87;;
68106;SDS011;54892;47.488;19.026;2022-10-16T18:05:29;7.82;;;4.43;;
68106;SDS011;54892;47.488;19.026;2022-10-16T18:08:33;7.65;;;4.25;;
68106;SDS011;54892;47.488;19.026;2022-10-16T18:11:40;13.18;;;4.57;;
68106;SDS011;54892;47.488;19.026;2022-10-16T18:14:44;9.23;;;4.43;;
68106;SDS011;54892;47.488;19.026;2022-10-16T18:17:48;8.32;;;4.43;;
68106;SDS011;54892;47.488;19.026;2022-10-16T18:20:56;10.38;;;4.50;;
68106;SDS011;54892;47.488;19.026;2022-10-16T18:24:00;12.18;;;4.25;;
68106;SDS011;54892;47.488;19.026;2022-10-16T18:27:05;8.40;;;4.55;;
68106;SDS011;54892;47.488;19.026;2022-10-16T18:30:10;13.93;;;4.90;;
68106;SDS011;54892;47.488;19.026;2022-10-16T18:33:15;7.53;;;4.72;;
68106;SDS011;54892;47.488;19.026;2022-10-16T18:36:21;9.02;;;4.53;;